< < Back
Terminal Aerodrome Forecast


Current Version              Previous Versions:   1  2  3  4  5  6  7  8  9  

Terminal Aerodrome Forecast

926
FTUS42 KMLB 011904 AAA
TAFMCO
TAF AMD
KMCO 011904Z 0119/0218 26007KT P6SM VCTS SCT040CB BKN250
      TEMPO 0119/0120 3SM TSRA BKN020CB OVC040
     FM012100 24007KT P6SM SCT040 SCT120
     FM020000 13007KT P6SM SCT040 OVC100
     FM020400 18003KT P6SM FEW050 BKN250=



Latest METAR

601
SAUS70 KWBC 020000 RRJ
MTRMCO
METAR KMCO 012353Z 08005KT 10SM -TSRA FEW021 SCT045CB BKN095 BKN250
26/23 A3008 RMK AO2 RAB09 TSB13 SLP185 OCNL LTGIC SE TS SE
MOV E CB DSNT SW-NW MOV E P0007 60034 T02560233 10339 20244
51021 $


USA.gov is the U.S. government's official web portal to all federal, state and local government web resources and services.